Time,TemperatureF,DewpointF,PressureIn,WindDirection,WindDirectionDegrees,WindSpeedMPH,WindSpeedGustMPH,Humidity,HourlyPrecipIn,Conditions,Clouds,dailyrainin,SoftwareType,DateUTC
2013-03-01 00:00:00,23.6,19.4,29.38,South,180,0.0,0.4,84,0.00,,,0.00,WUHU216HW,2013-03-01 09:00:00,
2013-03-01 00:05:00,23.4,19.3,29.38,South,180,0.0,0.0,84,0.00,,,0.00,WUHU216HW,2013-03-01 09:05:00,
2013-03-01 00:10:00,23.0,18.9,29.38,South,180,0.0,0.0,84,0.00,,,0.00,WUHU216HW,2013-03-01 09:10:00,
2013-03-01 00:15:00,22.9,18.7,29.38,South,180,0.0,0.0,84,0.00,,,0.00,WUHU216HW,2013-03-01 09:15:00,
2013-03-01 00:20:00,22.7,18.5,29.38,South,180,0.0,0.0,84,0.00,,,0.00,WUHU216HW,2013-03-01 09:20:00,
2013-03-01 00:25:00,22.5,18.4,29.39,South,180,0.0,0.0,84,0.00,,,0.00,WUHU216HW,2013-03-01 09:25:00,
2013-03-01 00:31:00,22.1,18.0,29.39,South,180,0.0,0.0,84,0.00,,,0.00,WUHU216HW,2013-03-01 09:31:00,
2013-03-01 00:36:00,22.0,17.8,29.39,SW,225,0.0,0.0,84,0.00,,,0.00,WUHU216HW,2013-03-01 09:36:00,
2013-03-01 00:41:00,22.1,18.3,29.39,WSW,248,0.4,0.9,85,0.00,,,0.00,WUHU216HW,2013-03-01 09:41:00,
2013-03-01 00:46:00,22.1,18.3,29.39,SSW,203,0.0,0.9,85,0.00,,,0.00,WUHU216HW,2013-03-01 09:46:00,
2013-03-01 00:51:00,22.3,18.5,29.40,SSW,203,0.0,0.4,85,0.00,,,0.00,WUHU216HW,2013-03-01 09:51:00,
2013-03-01 00:56:00,22.3,18.5,29.40,SSW,203,0.0,0.0,85,0.00,,,0.00,WUHU216HW,2013-03-01 09:56:00,
2013-03-01 01:02:00,22.5,18.6,29.40,SSW,203,0.0,0.0,85,0.00,,,0.00,WUHU216HW,2013-03-01 10:02:00,
2013-03-01 01:07:00,22.7,18.8,29.40,SW,225,0.0,0.0,85,0.00,,,0.00,WUHU216HW,2013-03-01 10:07:00,
2013-03-01 01:12:00,22.7,18.8,29.40,WSW,248,0.4,0.7,85,0.00,,,0.00,WUHU216HW,2013-03-01 10:12:00,
2013-03-01 01:17:00,22.7,18.8,29.40,WSW,248,0.0,0.7,85,0.00,,,0.00,WUHU216HW,2013-03-01 10:17:00,
2013-03-01 01:22:00,22.9,19.0,29.41,WSW,248,0.0,0.4,85,0.00,,,0.00,WUHU216HW,2013-03-01 10:22:00,
2013-03-01 01:27:00,22.9,19.0,29.41,SW,225,0.0,0.0,85,0.00,,,0.00,WUHU216HW,2013-03-01 10:27:00,
2013-03-01 01:32:00,22.9,19.0,29.41,SW,225,0.0,0.0,85,0.00,,,0.00,WUHU216HW,2013-03-01 10:32:00,
2013-03-01 01:37:00,23.0,19.2,29.41,South,180,0.0,0.0,85,0.00,,,0.00,WUHU216HW,2013-03-01 10:37:00,
2013-03-01 01:42:00,23.0,19.2,29.41,SSE,158,0.0,0.0,85,0.00,,,0.00,WUHU216HW,2013-03-01 10:42:00,
2013-03-01 01:47:00,23.0,19.2,29.42,SSE,158,0.0,0.0,85,0.00,,,0.00,WUHU216HW,2013-03-01 10:47:00,
2013-03-01 01:52:00,23.0,19.2,29.42,SSE,158,0.0,0.0,85,0.00,,,0.00,WUHU216HW,2013-03-01 10:52:00,
2013-03-01 01:58:00,23.2,19.4,29.42,ESE,113,0.4,0.9,85,0.00,,,0.00,WUHU216HW,2013-03-01 10:58:00,
2013-03-01 02:03:00,23.2,19.4,29.42,ESE,113,0.0,0.9,85,0.00,,,0.00,WUHU216HW,2013-03-01 11:03:00,
2013-03-01 02:08:00,23.2,19.4,29.42,ESE,113,0.4,1.1,85,0.00,,,0.00,WUHU216HW,2013-03-01 11:08:00,
2013-03-01 02:13:00,23.2,19.4,29.43,ESE,113,0.0,1.1,85,0.00,,,0.00,WUHU216HW,2013-03-01 11:13:00,
2013-03-01 02:18:00,23.2,19.6,29.43,ESE,113,0.0,0.0,86,0.00,,,0.00,WUHU216HW,2013-03-01 11:18:00,
2013-03-01 02:24:00,23.2,19.6,29.43,West,270,0.0,0.0,86,0.00,,,0.00,WUHU216HW,2013-03-01 11:24:00,
2013-03-01 02:29:00,23.2,19.6,29.43,West,270,0.0,0.0,86,0.00,,,0.00,WUHU216HW,2013-03-01 11:29:00,
2013-03-01 02:34:00,23.4,19.8,29.43,SW,225,0.9,0.9,86,0.00,,,0.00,WUHU216HW,2013-03-01 11:34:00,
2013-03-01 02:39:00,23.4,19.8,29.43,South,180,0.4,0.9,86,0.00,,,0.00,WUHU216HW,2013-03-01 11:39:00,
2013-03-01 02:44:00,23.2,19.6,29.44,SSE,158,0.0,0.9,86,0.00,,,0.00,WUHU216HW,2013-03-01 11:44:00,
2013-03-01 02:48:00,23.2,19.6,29.44,SSE,158,0.7,0.7,86,0.00,,,0.00,WUHU216HW,2013-03-01 11:48:00,
2013-03-01 02:54:00,23.4,19.8,29.44,ESE,113,0.0,0.7,86,0.00,,,0.00,WUHU216HW,2013-03-01 11:54:00,
2013-03-01 03:00:00,23.4,19.8,29.44,East,90,0.9,1.1,86,0.00,,,0.00,WUHU216HW,2013-03-01 12:00:00,
2013-03-01 03:05:00,23.4,19.8,29.44,East,90,0.4,1.1,86,0.00,,,0.00,WUHU216HW,2013-03-01 12:05:00,
2013-03-01 03:10:00,23.4,19.8,29.44,East,90,0.0,0.9,86,0.00,,,0.00,WUHU216HW,2013-03-01 12:10:00,
2013-03-01 03:15:00,23.4,19.8,29.44,East,90,0.9,1.1,86,0.00,,,0.00,WUHU216HW,2013-03-01 12:15:00,
2013-03-01 03:20:00,23.6,20.0,29.44,ESE,113,1.1,1.1,86,0.00,,,0.00,WUHU216HW,2013-03-01 12:20:00,
2013-03-01 03:25:00,23.6,20.0,29.44,ESE,113,0.0,1.1,86,0.00,,,0.00,WUHU216HW,2013-03-01 12:25:00,
2013-03-01 03:30:00,23.8,20.2,29.44,SW,225,0.0,0.7,86,0.00,,,0.00,WUHU216HW,2013-03-01 12:30:00,
2013-03-01 03:35:00,23.8,20.4,29.45,WNW,293,0.9,0.9,87,0.00,,,0.00,WUHU216HW,2013-03-01 12:35:00,
2013-03-01 03:40:00,23.8,20.4,29.45,WNW,293,0.0,1.1,87,0.00,,,0.00,WUHU216HW,2013-03-01 12:40:00,
2013-03-01 03:46:00,23.8,20.4,29.45,ESE,113,0.0,1.1,87,0.00,,,0.00,WUHU216HW,2013-03-01 12:46:00,
2013-03-01 03:51:00,23.8,20.4,29.45,SE,135,1.1,1.1,87,0.00,,,0.00,WUHU216HW,2013-03-01 12:51:00,
2013-03-01 03:56:00,23.8,20.4,29.45,SE,135,1.1,1.1,87,0.00,,,0.00,WUHU216HW,2013-03-01 12:56:00,
2013-03-01 04:00:00,23.9,20.3,29.45,SE,135,1.6,1.6,86,0.00,,,0.00,WUHU216HW,2013-03-01 13:00:00,
2013-03-01 04:07:00,23.9,20.6,29.45,SE,135,1.1,1.6,87,0.00,,,0.00,WUHU216HW,2013-03-01 13:07:00,
2013-03-01 04:12:00,23.9,20.6,29.45,SE,135,0.4,1.1,87,0.00,,,0.00,WUHU216HW,2013-03-01 13:12:00,
2013-03-01 04:17:00,23.9,20.3,29.46,SE,135,1.1,1.1,86,0.00,,,0.00,WUHU216HW,2013-03-01 13:17:00,
2013-03-01 04:22:00,23.9,20.3,29.46,SE,135,1.3,1.6,86,0.00,,,0.00,WUHU216HW,2013-03-01 13:22:00,
2013-03-01 04:27:00,24.1,20.8,29.46,SE,135,2.2,2.2,87,0.00,,,0.00,WUHU216HW,2013-03-01 13:27:00,
2013-03-01 04:32:00,24.1,20.8,29.46,ESE,113,1.8,2.2,87,0.00,,,0.00,WUHU216HW,2013-03-01 13:32:00,
2013-03-01 04:37:00,24.1,20.8,29.46,ESE,113,1.1,2.2,87,0.00,,,0.00,WUHU216HW,2013-03-01 13:37:00,
2013-03-01 04:42:00,24.1,20.8,29.47,SE,135,1.8,1.8,87,0.00,,,0.00,WUHU216HW,2013-03-01 13:42:00,
2013-03-01 04:47:00,24.3,21.0,29.47,SE,135,1.8,2.5,87,0.00,,,0.00,WUHU216HW,2013-03-01 13:47:00,
2013-03-01 04:52:00,24.3,21.0,29.47,SSE,158,2.0,2.7,87,0.00,,,0.00,WUHU216HW,2013-03-01 13:52:00,
2013-03-01 04:57:00,24.5,21.2,29.47,ESE,113,1.6,2.7,87,0.00,,,0.00,WUHU216HW,2013-03-01 13:57:00,
2013-03-01 05:03:00,24.5,21.2,29.47,SE,135,2.2,2.2,87,0.00,,,0.00,WUHU216HW,2013-03-01 14:03:00,
2013-03-01 05:08:00,24.7,21.3,29.47,SE,135,2.5,2.5,87,0.00,,,0.00,WUHU216HW,2013-03-01 14:08:00,
2013-03-01 05:13:00,24.8,21.5,29.48,ESE,113,1.6,2.5,87,0.00,,,0.00,WUHU216HW,2013-03-01 14:13:00,
2013-03-01 05:18:00,24.8,21.5,29.48,ESE,113,1.1,1.8,87,0.00,,,0.00,WUHU216HW,2013-03-01 14:18:00,
2013-03-01 05:23:00,25.2,22.2,29.48,South,180,0.0,1.1,88,0.00,,,0.00,WUHU216HW,2013-03-01 14:23:00,
2013-03-01 05:29:00,25.2,21.9,29.48,ESE,113,0.2,0.9,87,0.00,,,0.00,WUHU216HW,2013-03-01 14:29:00,
2013-03-01 05:34:00,25.2,21.9,29.49,NW,315,0.9,0.9,87,0.00,,,0.00,WUHU216HW,2013-03-01 14:34:00,
2013-03-01 05:39:00,25.4,22.3,29.49,WNW,293,1.1,1.1,88,0.00,,,0.00,WUHU216HW,2013-03-01 14:39:00,
2013-03-01 05:44:00,25.4,22.3,29.49,SSE,158,0.2,1.1,88,0.00,,,0.00,WUHU216HW,2013-03-01 14:44:00,
2013-03-01 05:49:00,25.4,22.3,29.49,SE,135,0.9,1.6,88,0.00,,,0.00,WUHU216HW,2013-03-01 14:49:00,
2013-03-01 05:54:00,25.4,22.3,29.49,ESE,113,0.0,1.8,88,0.00,,,0.00,WUHU216HW,2013-03-01 14:54:00,
2013-03-01 05:59:00,25.6,22.5,29.49,East,90,0.0,1.8,88,0.00,,,0.00,WUHU216HW,2013-03-01 14:59:00,
2013-03-01 06:05:00,25.6,22.5,29.49,North,0,0.4,0.4,88,0.00,,,0.00,WUHU216HW,2013-03-01 15:05:00,
2013-03-01 06:10:00,25.6,22.5,29.50,SE,135,0.0,0.4,88,0.00,,,0.00,WUHU216HW,2013-03-01 15:10:00,
2013-03-01 06:15:00,25.7,22.7,29.50,WNW,293,0.4,0.4,88,0.00,,,0.00,WUHU216HW,2013-03-01 15:15:00,
2013-03-01 06:20:00,25.9,22.9,29.50,SSW,203,0.4,0.9,88,0.00,,,0.00,WUHU216HW,2013-03-01 15:20:00,
2013-03-01 06:25:00,26.1,23.1,29.51,SSW,203,0.0,0.9,88,0.00,,,0.00,WUHU216HW,2013-03-01 15:25:00,
2013-03-01 06:30:00,26.1,23.1,29.51,SE,135,1.6,1.8,88,0.00,,,0.00,WUHU216HW,2013-03-01 15:30:00,
2013-03-01 06:35:00,26.1,23.1,29.51,East,90,1.8,1.8,88,0.00,,,0.00,WUHU216HW,2013-03-01 15:35:00,
2013-03-01 06:40:00,26.1,23.1,29.51,SE,135,0.0,2.7,88,0.00,,,0.00,WUHU216HW,2013-03-01 15:40:00,
2013-03-01 06:45:00,26.3,23.2,29.51,South,180,0.4,2.7,88,0.00,,,0.00,WUHU216HW,2013-03-01 15:45:00,
2013-03-01 06:50:00,26.3,23.2,29.51,SE,135,1.6,1.6,88,0.00,,,0.00,WUHU216HW,2013-03-01 15:50:00,
2013-03-01 06:56:00,26.1,23.1,29.52,SE,135,1.8,1.8,88,0.00,,,0.00,WUHU216HW,2013-03-01 15:56:00,
2013-03-01 07:00:00,26.1,23.1,29.52,ESE,113,2.5,2.5,88,0.00,,,0.00,WUHU216HW,2013-03-01 16:00:00,
2013-03-01 07:05:00,26.1,23.1,29.52,ESE,113,1.3,2.5,88,0.00,,,0.00,WUHU216HW,2013-03-01 16:05:00,
2013-03-01 07:12:00,26.3,23.2,29.52,ENE,68,2.2,3.4,88,0.00,,,0.00,WUHU216HW,2013-03-01 16:12:00,
2013-03-01 07:17:00,26.5,23.4,29.52,SSE,158,2.2,3.1,88,0.00,,,0.00,WUHU216HW,2013-03-01 16:17:00,
2013-03-01 07:22:00,26.8,23.8,29.52,SE,135,2.5,2.7,88,0.00,,,0.00,WUHU216HW,2013-03-01 16:22:00,
2013-03-01 07:27:00,27.0,24.0,29.53,SSE,158,2.0,2.7,88,0.00,,,0.00,WUHU216HW,2013-03-01 16:27:00,
2013-03-01 07:32:00,27.0,24.0,29.53,ESE,113,5.4,5.4,88,0.00,,,0.00,WUHU216HW,2013-03-01 16:32:00,
2013-03-01 07:37:00,27.2,24.1,29.53,ESE,113,4.0,5.4,88,0.00,,,0.00,WUHU216HW,2013-03-01 16:37:00,
2013-03-01 07:42:00,27.4,24.3,29.53,SE,135,4.3,4.9,88,0.00,,,0.00,WUHU216HW,2013-03-01 16:42:00,
2013-03-01 07:47:00,27.5,24.5,29.53,SE,135,5.4,5.4,88,0.00,,,0.00,WUHU216HW,2013-03-01 16:47:00,
2013-03-01 07:52:00,27.7,24.7,29.54,SE,135,3.4,5.4,88,0.00,,,0.00,WUHU216HW,2013-03-01 16:52:00,
2013-03-01 07:58:00,27.7,24.7,29.54,SE,135,2.0,4.7,88,0.00,,,0.00,WUHU216HW,2013-03-01 16:58:00,
2013-03-01 08:02:00,27.9,24.9,29.54,SE,135,4.0,4.7,88,0.00,,,0.00,WUHU216HW,2013-03-01 17:02:00,
2013-03-01 08:08:00,27.9,24.9,29.54,ESE,113,4.5,4.5,88,0.00,,,0.00,WUHU216HW,2013-03-01 17:08:00,
2013-03-01 08:13:00,28.1,25.0,29.54,South,180,1.1,4.5,88,0.00,,,0.00,WUHU216HW,2013-03-01 17:13:00,
2013-03-01 08:18:00,28.1,25.3,29.55,SSE,158,1.1,2.9,89,0.00,,,0.00,WUHU216HW,2013-03-01 17:18:00,
2013-03-01 08:23:00,28.3,25.5,29.55,South,180,0.9,3.4,89,0.00,,,0.00,WUHU216HW,2013-03-01 17:23:00,
2013-03-01 08:29:00,28.3,25.5,29.55,SSE,158,2.2,3.4,89,0.00,,,0.00,WUHU216HW,2013-03-01 17:29:00,
2013-03-01 08:33:00,28.4,25.7,29.55,ESE,113,2.5,2.5,89,0.00,,,0.00,WUHU216HW,2013-03-01 17:33:00,
2013-03-01 08:39:00,28.4,25.7,29.55,SE,135,2.0,2.7,89,0.00,,,0.00,WUHU216HW,2013-03-01 17:39:00,
2013-03-01 08:44:00,28.4,25.7,29.55,SSE,158,2.9,2.9,89,0.00,,,0.00,WUHU216HW,2013-03-01 17:44:00,
2013-03-01 08:49:00,28.6,25.8,29.56,SE,135,2.7,3.8,89,0.00,,,0.00,WUHU216HW,2013-03-01 17:49:00,
2013-03-01 08:54:00,28.8,26.0,29.56,SE,135,4.0,4.5,89,0.00,,,0.00,WUHU216HW,2013-03-01 17:54:00,
2013-03-01 08:59:00,29.0,26.2,29.56,ESE,113,4.0,4.9,89,0.00,,,0.00,WUHU216HW,2013-03-01 17:59:00,
2013-03-01 09:04:00,29.2,26.4,29.56,ESE,113,3.8,4.9,89,0.00,,,0.00,WUHU216HW,2013-03-01 18:04:00,
2013-03-01 09:09:00,29.3,26.6,29.57,SE,135,3.8,4.3,89,0.00,,,0.00,WUHU216HW,2013-03-01 18:09:00,
2013-03-01 09:15:00,29.7,26.9,29.57,ESE,113,1.8,4.3,89,0.00,,,0.00,WUHU216HW,2013-03-01 18:15:00,
2013-03-01 09:20:00,29.9,27.1,29.57,ESE,113,3.1,5.4,89,0.00,,,0.00,WUHU216HW,2013-03-01 18:20:00,
2013-03-01 09:25:00,30.2,27.5,29.57,ESE,113,3.6,5.4,89,0.00,,,0.00,WUHU216HW,2013-03-01 18:25:00,
2013-03-01 09:30:00,30.6,27.8,29.58,SE,135,3.6,4.3,89,0.00,,,0.00,WUHU216HW,2013-03-01 18:30:00,
2013-03-01 09:35:00,30.8,28.3,29.58,SE,135,4.0,4.3,90,0.00,,,0.00,WUHU216HW,2013-03-01 18:35:00,
2013-03-01 09:41:00,31.1,28.6,29.58,SE,135,3.1,4.0,90,0.00,,,0.00,WUHU216HW,2013-03-01 18:41:00,
2013-03-01 09:46:00,31.5,28.7,29.58,SE,135,3.6,3.6,89,0.00,,,0.00,WUHU216HW,2013-03-01 18:46:00,
2013-03-01 09:51:00,31.9,29.1,29.58,SE,135,3.6,4.9,89,0.00,,,0.00,WUHU216HW,2013-03-01 18:51:00,
2013-03-01 09:56:00,32.0,29.3,29.59,SE,135,1.3,4.9,89,0.00,,,0.00,WUHU216HW,2013-03-01 18:56:00,
2013-03-01 10:00:00,32.4,29.5,29.59,SSE,158,3.1,3.6,89,0.00,,,0.00,WUHU216HW,2013-03-01 19:00:00,
2013-03-01 10:06:00,32.8,29.9,29.60,SSE,158,0.9,4.7,89,0.00,,,0.00,WUHU216HW,2013-03-01 19:06:00,
2013-03-01 10:11:00,32.9,30.1,29.60,SE,135,2.2,4.7,89,0.00,,,0.00,WUHU216HW,2013-03-01 19:11:00,
2013-03-01 10:17:00,33.5,30.5,29.60,ESE,113,2.5,3.4,89,0.00,,,0.00,WUHU216HW,2013-03-01 19:17:00,
2013-03-01 10:22:00,33.7,30.7,29.60,SE,135,3.1,3.4,89,0.00,,,0.00,WUHU216HW,2013-03-01 19:22:00,
2013-03-01 10:27:00,34.2,31.0,29.61,SSE,158,2.5,3.4,88,0.00,,,0.00,WUHU216HW,2013-03-01 19:27:00,
2013-03-01 10:32:00,34.4,31.2,29.61,SSE,158,0.9,2.7,88,0.00,,,0.00,WUHU216HW,2013-03-01 19:32:00,
2013-03-01 10:37:00,34.7,31.5,29.61,SE,135,0.9,2.5,88,0.00,,,0.00,WUHU216HW,2013-03-01 19:37:00,
2013-03-01 10:42:00,34.9,31.3,29.61,SE,135,1.1,3.4,87,0.00,,,0.00,WUHU216HW,2013-03-01 19:42:00,
2013-03-01 10:47:00,34.9,31.3,29.62,SE,135,1.1,3.4,87,0.00,,,0.00,WUHU216HW,2013-03-01 19:47:00,
2013-03-01 10:52:00,35.1,31.5,29.62,ESE,113,1.6,2.5,87,0.00,,,0.00,WUHU216HW,2013-03-01 19:52:00,
2013-03-01 10:58:00,35.3,31.4,29.62,SSE,158,1.1,2.5,86,0.00,,,0.00,WUHU216HW,2013-03-01 19:58:00,
2013-03-01 11:02:00,35.6,31.8,29.62,SE,135,1.8,2.5,86,0.00,,,0.00,WUHU216HW,2013-03-01 20:02:00,
2013-03-01 11:07:00,35.8,32.2,29.62,SSE,158,2.2,2.7,87,0.00,,,0.00,WUHU216HW,2013-03-01 20:07:00,
2013-03-01 11:13:00,35.8,32.2,29.62,ESE,113,1.1,2.7,87,0.00,,,0.00,WUHU216HW,2013-03-01 20:13:00,
2013-03-01 11:18:00,36.0,32.1,29.62,SE,135,2.5,2.5,86,0.00,,,0.00,WUHU216HW,2013-03-01 20:18:00,
2013-03-01 11:23:00,36.5,32.7,29.63,East,90,0.4,2.5,86,0.00,,,0.00,WUHU216HW,2013-03-01 20:23:00,
2013-03-01 11:29:00,37.1,33.2,29.63,East,90,0.2,2.2,86,0.00,,,0.00,WUHU216HW,2013-03-01 20:29:00,
2013-03-01 11:34:00,37.6,33.8,29.63,East,90,1.6,1.6,86,0.00,,,0.00,WUHU216HW,2013-03-01 20:34:00,
2013-03-01 11:39:00,38.0,33.8,29.64,SE,135,0.7,1.6,85,0.00,,,0.00,WUHU216HW,2013-03-01 20:39:00,
2013-03-01 11:44:00,38.5,34.1,29.64,SSE,158,2.5,2.5,84,0.00,,,0.00,WUHU216HW,2013-03-01 20:44:00,
2013-03-01 11:49:00,38.2,33.8,29.65,SSE,158,1.3,2.5,84,0.00,,,0.00,WUHU216HW,2013-03-01 20:49:00,
2013-03-01 11:54:00,38.2,33.5,29.65,SE,135,1.3,2.2,83,0.00,,,0.00,WUHU216HW,2013-03-01 20:54:00,
2013-03-01 11:59:00,38.5,33.9,29.65,ESE,113,1.6,2.2,83,0.00,,,0.00,WUHU216HW,2013-03-01 20:59:00,
2013-03-01 12:04:00,39.1,34.4,29.65,SE,135,1.1,2.2,83,0.00,,,0.00,WUHU216HW,2013-03-01 21:04:00,
2013-03-01 12:09:00,39.2,34.2,29.66,ENE,68,0.9,2.0,82,0.00,,,0.00,WUHU216HW,2013-03-01 21:09:00,
2013-03-01 12:15:00,39.4,34.4,29.66,East,90,1.1,2.0,82,0.00,,,0.00,WUHU216HW,2013-03-01 21:15:00,
2013-03-01 12:20:00,39.4,34.1,29.66,ENE,68,0.4,2.0,81,0.00,,,0.00,WUHU216HW,2013-03-01 21:20:00,
2013-03-01 12:25:00,39.6,34.3,29.66,ENE,68,1.1,2.0,81,0.00,,,0.00,WUHU216HW,2013-03-01 21:25:00,
2013-03-01 12:30:00,39.6,34.0,29.67,ENE,68,0.7,1.1,80,0.00,,,0.00,WUHU216HW,2013-03-01 21:30:00,
2013-03-01 12:35:00,39.8,34.1,29.67,ESE,113,1.6,1.6,80,0.00,,,0.00,WUHU216HW,2013-03-01 21:35:00,
2013-03-01 12:40:00,40.0,34.3,29.67,SE,135,0.4,1.6,80,0.00,,,0.00,WUHU216HW,2013-03-01 21:40:00,
2013-03-01 12:46:00,40.1,34.7,29.67,SE,135,0.7,1.3,81,0.00,,,0.00,WUHU216HW,2013-03-01 21:46:00,
2013-03-01 12:51:00,40.1,34.7,29.67,East,90,0.0,1.3,81,0.00,,,0.00,WUHU216HW,2013-03-01 21:51:00,
2013-03-01 12:56:00,40.3,34.7,29.68,ESE,113,0.0,1.3,80,0.00,,,0.00,WUHU216HW,2013-03-01 21:56:00,
2013-03-01 13:01:00,40.3,34.7,29.68,ESE,113,1.1,1.3,80,0.00,,,0.00,WUHU216HW,2013-03-01 22:01:00,
2013-03-01 13:06:00,40.5,34.5,29.67,East,90,0.0,1.3,79,0.00,,,0.00,WUHU216HW,2013-03-01 22:06:00,
2013-03-01 13:11:00,40.7,34.7,29.68,SE,135,1.1,1.3,79,0.00,,,0.00,WUHU216HW,2013-03-01 22:11:00,
2013-03-01 13:16:00,40.5,34.1,29.68,ESE,113,0.4,1.3,78,0.00,,,0.00,WUHU216HW,2013-03-01 22:16:00,
2013-03-01 13:22:00,40.1,33.9,29.68,North,0,0.0,0.9,78,0.00,,,0.00,WUHU216HW,2013-03-01 22:22:00,
2013-03-01 13:27:00,39.4,32.8,29.69,WNW,293,1.1,2.0,77,0.00,,,0.00,WUHU216HW,2013-03-01 22:27:00,
2013-03-01 13:32:00,38.7,32.5,29.69,WSW,248,1.1,2.0,78,0.00,,,0.00,WUHU216HW,2013-03-01 22:32:00,
2013-03-01 13:37:00,38.5,32.3,29.69,West,270,0.7,1.3,78,0.00,,,0.00,WUHU216HW,2013-03-01 22:37:00,
2013-03-01 13:42:00,38.2,31.6,29.69,WSW,248,0.0,1.6,77,0.00,,,0.00,WUHU216HW,2013-03-01 22:42:00,
2013-03-01 13:47:00,37.8,31.6,29.70,West,270,0.0,1.6,78,0.00,,,0.00,WUHU216HW,2013-03-01 22:47:00,
2013-03-01 13:52:00,37.8,31.6,29.70,North,0,1.1,1.6,78,0.00,,,0.00,WUHU216HW,2013-03-01 22:52:00,
2013-03-01 13:57:00,37.4,31.2,29.70,NNW,338,0.9,1.6,78,0.00,,,0.00,WUHU216HW,2013-03-01 22:57:00,
2013-03-01 14:03:00,37.4,30.9,29.70,NNW,338,2.5,2.5,77,0.00,,,0.00,WUHU216HW,2013-03-01 23:03:00,
2013-03-01 14:08:00,37.3,30.4,29.70,NW,315,2.2,2.5,76,0.00,,,0.00,WUHU216HW,2013-03-01 23:08:00,
2013-03-01 14:13:00,36.9,30.7,29.70,NW,315,0.0,2.2,78,0.00,,,0.00,WUHU216HW,2013-03-01 23:13:00,
2013-03-01 14:18:00,37.3,31.3,29.70,North,0,2.2,2.2,79,0.00,,,0.00,WUHU216HW,2013-03-01 23:18:00,
2013-03-01 14:23:00,37.8,31.9,29.70,North,0,0.0,2.2,79,0.00,,,0.00,WUHU216HW,2013-03-01 23:23:00,
2013-03-01 14:28:00,38.5,32.6,29.71,NNE,23,1.8,2.0,79,0.00,,,0.00,WUHU216HW,2013-03-01 23:28:00,
2013-03-01 14:33:00,39.1,33.1,29.71,ENE,68,1.1,2.0,79,0.00,,,0.00,WUHU216HW,2013-03-01 23:33:00,
2013-03-01 14:39:00,39.4,33.5,29.71,ENE,68,1.6,1.6,79,0.00,,,0.00,WUHU216HW,2013-03-01 23:39:00,
2013-03-01 14:44:00,39.6,33.7,29.71,ENE,68,0.2,1.8,79,0.00,,,0.00,WUHU216HW,2013-03-01 23:44:00,
2013-03-01 14:49:00,39.4,33.5,29.72,NNE,23,2.5,4.7,79,0.00,,,0.00,WUHU216HW,2013-03-01 23:49:00,
2013-03-01 14:54:00,38.5,32.3,29.72,North,0,2.5,4.7,78,0.00,,,0.00,WUHU216HW,2013-03-01 23:54:00,
2013-03-01 14:59:00,37.6,31.4,29.72,East,90,2.2,4.0,78,0.00,,,0.00,WUHU216HW,2013-03-01 23:59:00,
2013-03-01 15:04:00,37.4,31.5,29.72,NNE,23,0.7,4.0,79,0.00,,,0.00,WUHU216HW,2013-03-02 00:04:00,
2013-03-01 15:09:00,37.8,32.2,29.73,NNE,23,1.1,4.0,80,0.00,,,0.00,WUHU216HW,2013-03-02 00:09:00,
2013-03-01 15:15:00,38.0,32.4,29.73,NNE,23,1.1,2.5,80,0.00,,,0.00,WUHU216HW,2013-03-02 00:15:00,
2013-03-01 15:20:00,38.2,32.6,29.73,North,0,1.1,2.0,80,0.01,,,0.01,WUHU216HW,2013-03-02 00:20:00,
2013-03-01 15:25:00,38.3,32.8,29.73,NE,45,2.7,2.7,80,0.01,,,0.01,WUHU216HW,2013-03-02 00:25:00,
2013-03-01 15:30:00,37.8,31.9,29.73,North,0,0.7,3.4,79,0.01,,,0.01,WUHU216HW,2013-03-02 00:30:00,
2013-03-01 15:35:00,36.7,31.4,29.73,NNW,338,1.6,3.4,81,0.01,,,0.01,WUHU216HW,2013-03-02 00:35:00,
2013-03-01 15:40:00,35.6,31.0,29.74,WNW,293,1.1,2.2,83,0.01,,,0.01,WUHU216HW,2013-03-02 00:40:00,
2013-03-01 15:45:00,35.3,30.9,29.74,West,270,1.1,1.8,84,0.01,,,0.01,WUHU216HW,2013-03-02 00:45:00,
2013-03-01 15:50:00,34.9,30.8,29.74,West,270,2.5,2.5,85,0.02,,,0.02,WUHU216HW,2013-03-02 00:50:00,
2013-03-01 15:55:00,34.9,30.5,29.74,West,270,5.6,5.6,84,0.02,,,0.02,WUHU216HW,2013-03-02 00:55:00,
2013-03-01 16:01:00,34.2,30.1,29.75,WNW,293,3.4,5.6,85,0.02,,,0.02,WUHU216HW,2013-03-02 01:01:00,
2013-03-01 16:06:00,33.8,29.7,29.75,WNW,293,1.8,4.9,85,0.02,,,0.02,WUHU216HW,2013-03-02 01:06:00,
2013-03-01 16:11:00,33.8,30.0,29.75,WNW,293,2.0,3.6,86,0.02,,,0.02,WUHU216HW,2013-03-02 01:11:00,
2013-03-01 16:16:00,33.8,30.0,29.75,WNW,293,2.0,3.6,86,0.01,,,0.02,WUHU216HW,2013-03-02 01:16:00,
2013-03-01 16:21:00,33.7,30.2,29.75,NW,315,2.5,4.0,87,0.01,,,0.02,WUHU216HW,2013-03-02 01:21:00,
2013-03-01 16:26:00,33.7,29.8,29.75,WNW,293,1.6,4.0,86,0.01,,,0.02,WUHU216HW,2013-03-02 01:26:00,
2013-03-01 16:31:00,33.7,29.8,29.75,WNW,293,1.8,3.4,86,0.01,,,0.02,WUHU216HW,2013-03-02 01:31:00,
2013-03-01 16:37:00,33.3,29.8,29.75,WNW,293,1.3,3.4,87,0.01,,,0.02,WUHU216HW,2013-03-02 01:37:00,
2013-03-01 16:42:00,33.1,29.9,29.76,WNW,293,1.1,3.4,88,0.01,,,0.02,WUHU216HW,2013-03-02 01:42:00,
2013-03-01 16:47:00,33.1,29.6,29.76,NW,315,2.7,2.9,87,0.01,,,0.02,WUHU216HW,2013-03-02 01:47:00,
2013-03-01 16:52:00,32.9,29.8,29.76,West,270,3.4,3.4,88,0.00,,,0.02,WUHU216HW,2013-03-02 01:52:00,
2013-03-01 16:57:00,32.8,29.6,29.76,NW,315,1.6,3.6,88,0.00,,,0.02,WUHU216HW,2013-03-02 01:57:00,
2013-03-01 17:02:00,32.8,29.6,29.76,WNW,293,2.2,3.6,88,0.00,,,0.02,WUHU216HW,2013-03-02 02:02:00,
2013-03-01 17:08:00,32.8,29.9,29.77,WNW,293,1.6,2.5,89,0.00,,,0.02,WUHU216HW,2013-03-02 02:08:00,
2013-03-01 17:13:00,32.6,29.7,29.77,WNW,293,2.5,2.5,89,0.00,,,0.02,WUHU216HW,2013-03-02 02:13:00,
2013-03-01 17:18:00,32.6,29.7,29.77,WNW,293,2.5,3.4,89,0.00,,,0.02,WUHU216HW,2013-03-02 02:18:00,
2013-03-01 17:23:00,32.4,29.5,29.77,WNW,293,2.5,3.4,89,0.00,,,0.02,WUHU216HW,2013-03-02 02:23:00,
2013-03-01 17:28:00,32.2,29.4,29.77,WNW,293,2.5,3.4,89,0.00,,,0.02,WUHU216HW,2013-03-02 02:28:00,
2013-03-01 17:33:00,32.0,29.3,29.78,WNW,293,2.5,2.5,89,0.00,,,0.02,WUHU216HW,2013-03-02 02:33:00,
2013-03-01 17:38:00,32.0,29.3,29.78,WNW,293,1.8,2.7,89,0.00,,,0.02,WUHU216HW,2013-03-02 02:38:00,
2013-03-01 17:43:00,31.9,29.1,29.78,WNW,293,2.7,3.8,89,0.00,,,0.02,WUHU216HW,2013-03-02 02:43:00,
2013-03-01 17:54:00,31.7,28.9,29.78,WNW,293,1.8,3.8,89,0.00,,,0.02,WUHU216HW,2013-03-02 02:54:00,
2013-03-01 17:59:00,31.7,29.2,29.79,WNW,293,1.1,3.4,90,0.00,,,0.02,WUHU216HW,2013-03-02 02:59:00,
2013-03-01 18:04:00,31.5,28.7,29.79,WNW,293,1.6,3.4,89,0.00,,,0.02,WUHU216HW,2013-03-02 03:04:00,
2013-03-01 18:09:00,31.5,28.7,29.79,WNW,293,0.9,2.5,89,0.00,,,0.02,WUHU216HW,2013-03-02 03:09:00,
2013-03-01 18:14:00,31.5,28.7,29.79,WNW,293,0.7,2.5,89,0.00,,,0.02,WUHU216HW,2013-03-02 03:14:00,
2013-03-01 18:19:00,31.3,28.5,29.80,WNW,293,1.1,2.5,89,0.00,,,0.02,WUHU216HW,2013-03-02 03:19:00,
2013-03-01 18:24:00,31.3,28.5,29.80,WNW,293,1.8,2.5,89,0.00,,,0.02,WUHU216HW,2013-03-02 03:24:00,
2013-03-01 18:30:00,31.3,28.5,29.80,WNW,293,1.6,1.8,89,0.00,,,0.02,WUHU216HW,2013-03-02 03:30:00,
2013-03-01 18:35:00,31.3,28.5,29.80,WNW,293,2.0,2.0,89,0.00,,,0.02,WUHU216HW,2013-03-02 03:35:00,
2013-03-01 18:40:00,31.3,28.5,29.80,WNW,293,0.7,2.5,89,0.00,,,0.02,WUHU216HW,2013-03-02 03:40:00,
2013-03-01 18:45:00,31.1,28.4,29.80,WNW,293,0.7,2.5,89,0.00,,,0.02,WUHU216HW,2013-03-02 03:45:00,
2013-03-01 18:50:00,31.1,28.4,29.81,WNW,293,0.4,1.3,89,0.00,,,0.02,WUHU216HW,2013-03-02 03:50:00,
2013-03-01 18:55:00,31.1,28.4,29.81,WNW,293,2.0,2.5,89,0.00,,,0.02,WUHU216HW,2013-03-02 03:55:00,
2013-03-01 19:00:00,31.1,28.4,29.81,WNW,293,0.4,2.5,89,0.00,,,0.02,WUHU216HW,2013-03-02 04:00:00,
2013-03-01 19:06:00,31.0,28.2,29.81,WNW,293,1.8,3.1,89,0.00,,,0.02,WUHU216HW,2013-03-02 04:06:00,
2013-03-01 19:11:00,31.0,28.2,29.82,WNW,293,1.8,3.1,89,0.00,,,0.02,WUHU216HW,2013-03-02 04:11:00,
2013-03-01 19:16:00,31.0,28.2,29.82,WNW,293,1.8,2.7,89,0.00,,,0.02,WUHU216HW,2013-03-02 04:16:00,
2013-03-01 19:21:00,31.0,28.4,29.82,WNW,293,2.5,3.8,90,0.00,,,0.02,WUHU216HW,2013-03-02 04:21:00,
2013-03-01 19:26:00,30.8,28.0,29.82,WNW,293,3.4,3.8,89,0.00,,,0.02,WUHU216HW,2013-03-02 04:26:00,
2013-03-01 19:31:00,30.8,28.0,29.82,WNW,293,1.3,3.4,89,0.00,,,0.02,WUHU216HW,2013-03-02 04:31:00,
2013-03-01 19:36:00,30.8,28.0,29.83,WNW,293,0.7,2.7,89,0.00,,,0.02,WUHU216HW,2013-03-02 04:36:00,
2013-03-01 19:41:00,30.6,27.8,29.83,WNW,293,1.8,2.5,89,0.00,,,0.02,WUHU216HW,2013-03-02 04:41:00,
2013-03-01 19:46:00,30.6,27.8,29.83,WNW,293,1.8,3.1,89,0.00,,,0.02,WUHU216HW,2013-03-02 04:46:00,
2013-03-01 19:51:00,30.6,27.8,29.83,WNW,293,0.7,3.1,89,0.00,,,0.02,WUHU216HW,2013-03-02 04:51:00,
2013-03-01 19:56:00,30.6,27.8,29.83,WNW,293,0.7,1.8,89,0.00,,,0.02,WUHU216HW,2013-03-02 04:56:00,
2013-03-01 20:02:00,30.6,27.8,29.84,WNW,293,0.4,1.8,89,0.00,,,0.02,WUHU216HW,2013-03-02 05:02:00,
2013-03-01 20:07:00,30.6,27.8,29.84,WNW,293,0.4,1.3,89,0.00,,,0.02,WUHU216HW,2013-03-02 05:07:00,
2013-03-01 20:12:00,30.6,27.8,29.84,WNW,293,0.9,1.8,89,0.00,,,0.02,WUHU216HW,2013-03-02 05:12:00,
2013-03-01 20:17:00,30.6,27.8,29.84,WNW,293,0.7,1.8,89,0.00,,,0.02,WUHU216HW,2013-03-02 05:17:00,
2013-03-01 20:22:00,30.6,27.8,29.85,WNW,293,1.1,1.8,89,0.00,,,0.02,WUHU216HW,2013-03-02 05:22:00,
2013-03-01 20:28:00,30.6,28.1,29.85,WNW,293,0.7,1.8,90,0.00,,,0.02,WUHU216HW,2013-03-02 05:28:00,
2013-03-01 20:33:00,30.6,28.1,29.85,WNW,293,0.9,0.9,90,0.00,,,0.02,WUHU216HW,2013-03-02 05:33:00,
2013-03-01 20:38:00,30.6,28.1,29.85,WNW,293,0.4,0.9,90,0.00,,,0.02,WUHU216HW,2013-03-02 05:38:00,
2013-03-01 20:43:00,30.6,28.1,29.85,WNW,293,0.0,0.7,90,0.00,,,0.02,WUHU216HW,2013-03-02 05:43:00,
2013-03-01 20:48:00,30.6,28.1,29.85,WNW,293,0.4,1.1,90,0.00,,,0.02,WUHU216HW,2013-03-02 05:48:00,
2013-03-01 20:53:00,30.6,27.8,29.86,WNW,293,0.0,1.1,89,0.00,,,0.02,WUHU216HW,2013-03-02 05:53:00,
2013-03-01 20:58:00,30.6,27.8,29.86,WNW,293,0.0,0.7,89,0.00,,,0.02,WUHU216HW,2013-03-02 05:58:00,
2013-03-01 21:04:00,30.6,27.8,29.86,WNW,293,0.0,0.7,89,0.00,,,0.02,WUHU216HW,2013-03-02 06:04:00,
2013-03-01 21:09:00,30.6,27.8,29.86,WNW,293,0.0,0.4,89,0.00,,,0.02,WUHU216HW,2013-03-02 06:09:00,
2013-03-01 21:14:00,30.4,27.6,29.86,WNW,293,0.0,0.4,89,0.00,,,0.02,WUHU216HW,2013-03-02 06:14:00,
2013-03-01 21:19:00,30.4,27.9,29.87,WNW,293,0.0,0.2,90,0.00,,,0.02,WUHU216HW,2013-03-02 06:19:00,
2013-03-01 21:24:00,30.2,27.5,29.86,WNW,293,0.0,0.0,89,0.00,,,0.02,WUHU216HW,2013-03-02 06:24:00,
2013-03-01 21:29:00,30.2,27.5,29.86,WNW,293,0.2,0.2,89,0.00,,,0.02,WUHU216HW,2013-03-02 06:29:00,
2013-03-01 21:34:00,30.1,27.3,29.87,WNW,293,0.0,0.4,89,0.00,,,0.02,WUHU216HW,2013-03-02 06:34:00,
2013-03-01 21:39:00,29.9,27.1,29.87,WNW,293,0.0,0.4,89,0.00,,,0.02,WUHU216HW,2013-03-02 06:39:00,
2013-03-01 21:44:00,29.5,26.5,29.87,WNW,293,0.4,0.4,88,0.00,,,0.02,WUHU216HW,2013-03-02 06:44:00,
2013-03-01 21:49:00,29.2,26.1,29.88,WNW,293,0.0,0.4,88,0.00,,,0.02,WUHU216HW,2013-03-02 06:49:00,
2013-03-01 21:55:00,28.6,25.6,29.88,WNW,293,0.0,0.4,88,0.00,,,0.02,WUHU216HW,2013-03-02 06:55:00,
2013-03-01 21:59:00,28.3,25.2,29.88,WNW,293,0.0,0.0,88,0.00,,,0.02,WUHU216HW,2013-03-02 06:59:00,
2013-03-01 22:05:00,27.7,24.7,29.88,WNW,293,0.0,0.0,88,0.00,,,0.02,WUHU216HW,2013-03-02 07:05:00,
2013-03-01 22:11:00,27.5,24.5,29.88,WNW,293,0.0,0.0,88,0.00,,,0.02,WUHU216HW,2013-03-02 07:11:00,
2013-03-01 22:16:00,27.4,24.3,29.88,WNW,293,0.0,0.0,88,0.00,,,0.02,WUHU216HW,2013-03-02 07:16:00,
2013-03-01 22:21:00,27.4,24.3,29.88,WNW,293,0.7,0.7,88,0.00,,,0.02,WUHU216HW,2013-03-02 07:21:00,
2013-03-01 22:26:00,27.4,24.3,29.89,WNW,293,0.4,0.7,88,0.00,,,0.02,WUHU216HW,2013-03-02 07:26:00,
2013-03-01 22:31:00,27.2,24.1,29.89,WNW,293,0.2,0.4,88,0.00,,,0.02,WUHU216HW,2013-03-02 07:31:00,
2013-03-01 22:36:00,27.4,24.3,29.89,WNW,293,0.0,0.4,88,0.00,,,0.02,WUHU216HW,2013-03-02 07:36:00,
2013-03-01 22:41:00,27.4,24.3,29.89,WNW,293,0.9,0.9,88,0.00,,,0.02,WUHU216HW,2013-03-02 07:41:00,
2013-03-01 22:46:00,27.5,24.8,29.89,WNW,293,0.2,0.9,89,0.00,,,0.02,WUHU216HW,2013-03-02 07:46:00,
2013-03-01 22:51:00,27.5,24.8,29.89,WNW,293,0.0,0.9,89,0.00,,,0.02,WUHU216HW,2013-03-02 07:51:00,
2013-03-01 22:56:00,27.7,24.9,29.90,WNW,293,0.0,0.0,89,0.00,,,0.02,WUHU216HW,2013-03-02 07:56:00,
2013-03-01 23:02:00,27.7,24.9,29.90,WNW,293,0.0,0.0,89,0.00,,,0.02,WUHU216HW,2013-03-02 08:02:00,
2013-03-01 23:07:00,27.7,24.9,29.90,WNW,293,0.0,0.0,89,0.00,,,0.02,WUHU216HW,2013-03-02 08:07:00,
2013-03-01 23:12:00,27.9,25.1,29.90,WNW,293,0.0,0.0,89,0.00,,,0.02,WUHU216HW,2013-03-02 08:12:00,
2013-03-01 23:17:00,27.9,25.1,29.90,WNW,293,0.0,0.0,89,0.00,,,0.02,WUHU216HW,2013-03-02 08:17:00,
2013-03-01 23:22:00,27.9,25.1,29.91,WNW,293,0.0,0.2,89,0.00,,,0.02,WUHU216HW,2013-03-02 08:22:00,
2013-03-01 23:27:00,27.9,25.1,29.91,WNW,293,0.0,0.2,89,0.00,,,0.02,WUHU216HW,2013-03-02 08:27:00,
2013-03-01 23:32:00,27.9,25.1,29.91,WNW,293,0.4,0.4,89,0.00,,,0.02,WUHU216HW,2013-03-02 08:32:00,
2013-03-01 23:38:00,28.1,25.3,29.91,WNW,293,0.0,0.4,89,0.00,,,0.02,WUHU216HW,2013-03-02 08:38:00,
2013-03-01 23:43:00,28.1,25.3,29.91,WNW,293,0.0,0.0,89,0.00,,,0.02,WUHU216HW,2013-03-02 08:43:00,
2013-03-01 23:48:00,28.1,25.3,29.91,WNW,293,0.0,0.0,89,0.00,,,0.02,WUHU216HW,2013-03-02 08:48:00,
2013-03-01 23:53:00,28.1,25.3,29.91,WNW,293,0.0,0.0,89,0.00,,,0.02,WUHU216HW,2013-03-02 08:53:00,
2013-03-01 23:58:00,28.3,25.5,29.91,WNW,293,0.0,0.0,89,0.00,,,0.02,WUHU216HW,2013-03-02 08:58:00,